createdAt,value
2017-10-16T00:02:03.421Z,10.43
2017-10-16T00:04:36.310Z,10.83
2017-10-16T00:07:07.269Z,11.13
2017-10-16T00:09:38.285Z,11.33
2017-10-16T00:12:08.401Z,9.90
2017-10-16T00:14:38.510Z,10.00
2017-10-16T00:17:11.242Z,12.80
2017-10-16T00:19:41.325Z,12.63
2017-10-16T00:22:11.988Z,10.43
2017-10-16T00:24:43.289Z,11.23
2017-10-16T00:27:18.136Z,8.93
2017-10-16T00:29:48.397Z,11.70
2017-10-16T00:32:19.749Z,11.30
2017-10-16T00:34:50.248Z,12.97
2017-10-16T00:37:22.006Z,11.87
2017-10-16T00:39:53.195Z,10.90
2017-10-16T00:42:24.530Z,10.40
2017-10-16T00:44:57.258Z,12.00
2017-10-16T00:47:27.735Z,11.40
2017-10-16T00:49:58.158Z,10.07
2017-10-16T00:52:30.886Z,11.77
2017-10-16T00:55:01.271Z,11.97
2017-10-16T00:57:32.464Z,9.80
2017-10-16T01:00:03.195Z,10.30
2017-10-16T01:02:33.389Z,10.23
2017-10-16T01:05:06.926Z,11.53
2017-10-16T01:07:37.323Z,10.13
2017-10-16T01:10:08.466Z,14.37
2017-10-16T01:12:39.526Z,13.87
2017-10-16T01:15:09.879Z,15.03
2017-10-16T01:17:42.170Z,16.97
2017-10-16T01:20:12.755Z,16.50
2017-10-16T01:22:43.779Z,17.63
2017-10-16T01:25:14.885Z,17.00
2017-10-16T01:27:46.385Z,15.53
2017-10-16T01:30:16.794Z,16.77
2017-10-16T01:32:48.259Z,16.87
2017-10-16T01:35:19.119Z,18.03
2017-10-16T01:37:49.941Z,15.60
2017-10-16T01:40:22.181Z,18.07
2017-10-16T01:42:53.799Z,19.10
2017-10-16T01:45:29.825Z,17.43
2017-10-16T01:48:00.264Z,18.17
2017-10-16T01:50:31.183Z,17.87
2017-10-16T01:53:02.268Z,15.67
2017-10-16T01:55:33.957Z,16.90
2017-10-16T01:58:05.411Z,17.10
2017-10-16T02:00:36.660Z,15.53
2017-10-16T02:03:08.686Z,16.53
2017-10-16T02:05:39.334Z,17.00
2017-10-16T02:08:10.835Z,15.20
2017-10-16T02:10:41.226Z,16.03
2017-10-16T02:13:13.307Z,13.87
2017-10-16T02:15:46.795Z,15.40
2017-10-16T02:18:17.770Z,15.53
2017-10-16T02:20:48.470Z,18.40
2017-10-16T02:23:19.428Z,17.63
2017-10-16T02:25:49.665Z,16.27
2017-10-16T02:28:20.730Z,16.57
2017-10-16T02:30:51.231Z,16.20
2017-10-16T02:33:22.538Z,14.37
2017-10-16T02:35:53.854Z,16.33
2017-10-16T02:38:25.618Z,14.03
2017-10-16T02:40:58.646Z,15.03
2017-10-16T02:43:29.490Z,16.50
2017-10-16T02:46:00.607Z,16.53
2017-10-16T02:48:32.084Z,16.20
2017-10-16T02:51:03.255Z,12.27
2017-10-16T02:53:33.444Z,15.20
2017-10-16T02:56:03.563Z,12.50
2017-10-16T02:58:35.668Z,15.63
2017-10-16T03:01:05.661Z,13.10
2017-10-16T03:03:36.709Z,14.03
2017-10-16T03:06:06.938Z,11.97
2017-10-16T03:08:37.449Z,10.50
2017-10-16T03:11:11.651Z,15.77
2017-10-16T03:13:42.618Z,12.13
2017-10-16T03:16:12.658Z,12.47
2017-10-16T03:18:44.183Z,9.97
2017-10-16T03:21:14.579Z,9.93
2017-10-16T03:23:53.242Z,9.43
2017-10-16T03:26:23.762Z,8.97
2017-10-16T03:28:55.277Z,11.17
2017-10-16T03:31:26.316Z,8.30
2017-10-16T03:33:56.593Z,10.23
2017-10-16T03:36:26.592Z,8.03
2017-10-16T03:39:00.309Z,10.90
2017-10-16T03:41:30.687Z,10.03
2017-10-16T03:44:00.938Z,9.73
2017-10-16T03:46:32.003Z,10.87
2017-10-16T03:49:02.080Z,11.57
2017-10-16T03:51:32.481Z,10.43
2017-10-16T03:54:05.385Z,12.33
2017-10-16T03:56:37.635Z,11.77
2017-10-16T03:59:09.195Z,8.83
2017-10-16T04:01:40.498Z,9.77
2017-10-16T04:04:11.938Z,8.63
2017-10-16T04:06:42.766Z,8.67
2017-10-16T04:09:14.167Z,10.90
2017-10-16T04:11:45.788Z,10.00
2017-10-16T04:14:16.434Z,11.90
2017-10-16T04:16:47.454Z,12.50
2017-10-16T04:19:17.610Z,11.03
2017-10-16T04:21:48.582Z,13.63
2017-10-16T04:24:20.087Z,12.77
2017-10-16T04:26:53.038Z,13.07
2017-10-16T04:29:23.229Z,13.07
2017-10-16T04:31:56.118Z,10.43
2017-10-16T04:34:27.212Z,9.63
2017-10-16T04:37:13.272Z,10.10
2017-10-16T04:39:48.247Z,10.00
2017-10-16T04:42:30.041Z,14.27
2017-10-16T04:45:05.586Z,9.37
2017-10-16T04:47:36.550Z,9.80
2017-10-16T04:50:08.934Z,11.97
2017-10-16T04:52:39.519Z,11.40
2017-10-16T04:55:11.536Z,9.50
2017-10-16T04:57:42.569Z,12.77
2017-10-16T05:00:15.692Z,11.17
2017-10-16T05:02:47.971Z,11.10
2017-10-16T05:05:18.706Z,15.20
2017-10-16T05:07:49.028Z,11.83
2017-10-16T05:10:19.142Z,10.37
2017-10-16T05:12:49.866Z,10.20
2017-10-16T05:15:20.258Z,11.63
2017-10-16T05:17:51.485Z,10.73
2017-10-16T05:20:22.338Z,8.93
2017-10-16T05:22:52.650Z,9.27
2017-10-16T05:25:24.373Z,9.90
2017-10-16T05:27:54.940Z,13.90
2017-10-16T05:30:25.139Z,12.80
2017-10-16T05:32:55.546Z,9.40
2017-10-16T05:35:25.650Z,11.83
2017-10-16T05:37:56.595Z,10.03
2017-10-16T05:40:26.958Z,8.80
2017-10-16T05:42:59.526Z,11.20
2017-10-16T05:45:30.789Z,10.17
2017-10-16T05:48:01.494Z,11.27
2017-10-16T05:50:32.523Z,13.63
2017-10-16T05:53:02.791Z,12.37
2017-10-16T05:55:33.054Z,15.70
2017-10-16T05:58:04.014Z,20.73
2017-10-16T06:00:35.158Z,18.30
2017-10-16T06:03:06.859Z,19.00
2017-10-16T06:05:37.237Z,18.90
2017-10-16T06:08:08.322Z,20.10
2017-10-16T06:10:38.660Z,21.00
2017-10-16T06:13:08.742Z,17.90
2017-10-16T06:15:38.936Z,21.13
2017-10-16T06:18:10.317Z,20.07
2017-10-16T06:20:44.097Z,20.80
2017-10-16T06:23:14.431Z,20.37
2017-10-16T06:25:46.769Z,18.60
2017-10-16T06:28:20.336Z,17.97
2017-10-16T06:30:50.749Z,17.60
2017-10-16T06:33:21.740Z,18.93
2017-10-16T06:35:51.951Z,18.50
2017-10-16T06:38:23.030Z,18.47
2017-10-16T06:40:53.327Z,18.50
2017-10-16T06:43:24.686Z,19.17
2017-10-16T06:45:55.064Z,19.27
2017-10-16T06:48:26.095Z,19.20
2017-10-16T06:50:56.181Z,17.43
2017-10-16T06:53:28.941Z,18.20
2017-10-16T06:56:03.076Z,16.40
2017-10-16T06:58:33.357Z,16.97
2017-10-16T07:01:09.821Z,17.60
2017-10-16T07:03:40.867Z,16.97
2017-10-16T07:06:11.128Z,15.57
2017-10-16T07:08:44.199Z,17.17
2017-10-16T07:11:17.887Z,14.83
2017-10-16T07:13:49.853Z,16.90
2017-10-16T07:16:21.557Z,17.50
2017-10-16T07:18:53.299Z,16.70
2017-10-16T07:21:24.396Z,16.23
2017-10-16T07:23:57.243Z,16.93
2017-10-16T07:26:30.791Z,14.37
2017-10-16T07:29:01.247Z,15.60
2017-10-16T07:31:32.599Z,15.97
2017-10-16T07:34:03.590Z,14.37
2017-10-16T07:36:34.662Z,15.20
2017-10-16T07:39:06.691Z,15.03
2017-10-16T07:41:37.009Z,15.17
2017-10-16T07:44:07.319Z,14.90
2017-10-16T07:46:37.747Z,14.30
2017-10-16T07:49:07.973Z,15.00
2017-10-16T07:51:38.124Z,14.50
2017-10-16T07:54:09.815Z,14.60
2017-10-16T07:56:40.137Z,14.60
2017-10-16T07:59:11.870Z,14.63
2017-10-16T08:01:43.144Z,16.30
2017-10-16T08:04:14.620Z,13.90
2017-10-16T08:06:50.953Z,14.20
2017-10-16T08:09:22.009Z,14.80
2017-10-16T08:11:56.306Z,14.23
2017-10-16T08:14:26.547Z,14.53
2017-10-16T08:16:57.732Z,13.50
2017-10-16T08:19:29.188Z,12.90
2017-10-16T08:22:01.761Z,12.77
2017-10-16T08:24:33.014Z,12.90
2017-10-16T08:27:05.577Z,13.50
2017-10-16T08:29:38.882Z,12.33
2017-10-16T08:32:14.652Z,13.57
2017-10-16T08:34:46.258Z,13.03
2017-10-16T08:37:17.554Z,13.20
2017-10-16T08:39:50.221Z,12.70
2017-10-16T08:42:27.581Z,12.30
2017-10-16T08:44:59.251Z,12.63
2017-10-16T08:47:30.434Z,11.90
2017-10-16T08:50:03.125Z,11.30
2017-10-16T08:52:34.567Z,12.50
2017-10-16T08:55:07.176Z,12.57
2017-10-16T08:57:37.631Z,13.17
2017-10-16T09:00:08.599Z,12.60
2017-10-16T09:02:39.254Z,13.57
2017-10-16T09:05:13.413Z,12.00
2017-10-16T09:07:48.391Z,12.60
2017-10-16T09:10:22.104Z,12.90
2017-10-16T09:12:52.798Z,13.37
2017-10-16T09:15:24.736Z,13.17
2017-10-16T09:17:57.070Z,13.10
2017-10-16T09:20:27.490Z,13.30
2017-10-16T09:22:58.009Z,13.30
2017-10-16T09:25:28.958Z,12.93
2017-10-16T09:28:00.223Z,12.90
2017-10-16T09:30:31.546Z,14.10
2017-10-16T09:33:02.020Z,13.63
2017-10-16T09:35:32.867Z,14.40
2017-10-16T09:38:04.631Z,13.40
2017-10-16T09:40:35.053Z,13.83
2017-10-16T09:43:05.590Z,12.40
2017-10-16T09:45:36.881Z,14.20
2017-10-16T09:48:07.994Z,12.47
2017-10-16T09:50:40.268Z,12.67
2017-10-16T09:53:13.585Z,13.80
2017-10-16T09:55:45.040Z,13.13
2017-10-16T09:58:17.395Z,12.00
2017-10-16T10:00:49.228Z,13.20
2017-10-16T10:03:21.177Z,12.23
2017-10-16T10:05:51.596Z,12.10
2017-10-16T10:08:21.958Z,12.70
2017-10-16T10:10:54.734Z,11.60
2017-10-16T10:13:27.974Z,12.37
2017-10-16T10:16:07.688Z,12.47
2017-10-16T10:18:49.737Z,11.80
2017-10-16T10:21:38.446Z,12.80
2017-10-16T10:24:20.374Z,12.67
2017-10-16T10:27:04.173Z,11.33
2017-10-16T10:29:54.625Z,12.50
2017-10-16T10:32:39.397Z,11.50
2017-10-16T10:35:36.503Z,11.70
2017-10-16T10:38:37.184Z,12.60
2017-10-16T10:41:57.217Z,11.93
2017-10-16T10:44:34.368Z,11.90
2017-10-16T10:47:06.316Z,12.18
2017-10-16T10:49:37.569Z,12.90
2017-10-16T10:52:10.272Z,11.27
2017-10-16T10:54:41.895Z,10.63
2017-10-16T10:57:15.520Z,12.13
2017-10-16T10:59:46.480Z,10.93
2017-10-16T11:02:20.185Z,10.20
2017-10-16T11:04:50.534Z,10.87
2017-10-16T11:07:20.879Z,11.80
2017-10-16T11:09:51.156Z,10.57
2017-10-16T11:12:22.333Z,10.40
2017-10-16T11:14:54.168Z,11.00
2017-10-16T11:17:24.691Z,10.97
2017-10-16T11:19:55.804Z,10.30
2017-10-16T11:22:26.714Z,11.47
2017-10-16T11:25:00.292Z,11.27
2017-10-16T11:27:33.820Z,10.67
2017-10-16T11:30:04.413Z,10.90
2017-10-16T11:32:35.052Z,10.67
2017-10-16T11:35:10.145Z,11.17
2017-10-16T11:37:47.892Z,10.77
2017-10-16T11:40:18.352Z,11.23
2017-10-16T11:42:49.370Z,10.03
2017-10-16T11:45:20.717Z,10.10
2017-10-16T11:47:53.864Z,10.33
2017-10-16T11:50:26.041Z,10.20
2017-10-16T11:52:58.823Z,10.47
2017-10-16T11:55:30.944Z,10.30
2017-10-16T11:58:05.649Z,8.80
2017-10-16T12:00:37.211Z,11.23
2017-10-16T12:03:14.166Z,10.33
2017-10-16T12:05:44.977Z,10.13
2017-10-16T12:08:16.414Z,9.88
2017-10-16T12:10:50.383Z,10.00
2017-10-16T12:13:24.016Z,9.80
2017-10-16T12:15:55.486Z,10.00
2017-10-16T12:18:28.389Z,9.83
2017-10-16T12:20:59.706Z,9.73
2017-10-16T12:23:32.027Z,9.80
2017-10-16T12:26:03.505Z,10.23
2017-10-16T12:28:36.448Z,10.17
2017-10-16T12:31:07.736Z,10.77
2017-10-16T12:33:40.225Z,9.67
2017-10-16T12:36:11.781Z,10.93
2017-10-16T12:38:46.739Z,10.43
2017-10-16T12:41:18.602Z,9.57
2017-10-16T12:43:49.055Z,9.80
2017-10-16T12:46:19.651Z,10.70
2017-10-16T12:48:52.995Z,11.07
2017-10-16T12:51:25.195Z,11.07
2017-10-16T12:53:55.877Z,10.57
2017-10-16T12:56:26.176Z,11.13
2017-10-16T12:58:56.883Z,10.80
2017-10-16T13:01:27.385Z,9.73
2017-10-16T13:03:59.851Z,10.40
2017-10-16T13:06:32.486Z,10.50
2017-10-16T13:09:05.334Z,9.90
2017-10-16T13:11:36.374Z,10.80
2017-10-16T13:14:06.723Z,10.13
2017-10-16T13:16:37.172Z,9.87
2017-10-16T13:19:08.675Z,10.40
2017-10-16T13:21:39.233Z,10.70
2017-10-16T13:24:10.808Z,10.30
2017-10-16T13:26:42.858Z,10.80
2017-10-16T13:29:14.757Z,10.33
2017-10-16T13:31:47.415Z,9.53
2017-10-16T13:34:19.646Z,11.10
2017-10-16T13:36:51.003Z,10.53
2017-10-16T13:39:25.360Z,10.13
2017-10-16T13:41:58.958Z,10.33
2017-10-16T13:44:30.676Z,9.93
2017-10-16T13:47:01.323Z,9.73
2017-10-16T13:49:36.331Z,10.53
2017-10-16T13:52:08.635Z,9.80
2017-10-16T13:54:41.278Z,10.73
2017-10-16T13:57:12.806Z,10.00
2017-10-16T13:59:43.517Z,10.00
2017-10-16T14:02:16.332Z,10.13
2017-10-16T14:04:46.873Z,9.73
2017-10-16T14:07:18.511Z,9.47
2017-10-16T14:09:54.602Z,9.73
2017-10-16T14:12:26.826Z,9.83
2017-10-16T14:14:57.680Z,9.37
2017-10-16T14:17:29.407Z,10.60
2017-10-16T14:20:03.806Z,9.63
2017-10-16T14:22:35.296Z,10.03
2017-10-16T14:25:09.639Z,9.30
2017-10-16T14:27:40.898Z,9.93
2017-10-16T14:30:15.848Z,10.10
2017-10-16T14:32:52.426Z,9.67
2017-10-16T14:35:28.381Z,9.60
2017-10-16T14:38:01.470Z,9.00
2017-10-16T14:40:32.592Z,8.93
2017-10-16T14:43:03.726Z,9.73
2017-10-16T14:45:34.166Z,10.00
2017-10-16T14:48:04.641Z,10.03
2017-10-16T14:50:38.210Z,9.80
2017-10-16T14:53:09.926Z,8.87
2017-10-16T14:55:41.738Z,9.83
2017-10-16T14:58:13.529Z,7.30
2017-10-16T15:00:44.293Z,10.20
2017-10-16T15:03:15.032Z,9.90
2017-10-16T15:05:46.214Z,8.70
2017-10-16T15:08:20.577Z,9.13
2017-10-16T15:10:50.913Z,10.33
2017-10-16T15:13:22.166Z,9.50
2017-10-16T15:15:53.831Z,9.53
2017-10-16T15:18:24.246Z,9.43
2017-10-16T15:20:54.584Z,9.93
2017-10-16T15:23:27.575Z,9.30
2017-10-16T15:26:00.812Z,10.30
2017-10-16T15:28:32.067Z,10.37
2017-10-16T15:31:04.850Z,9.53
2017-10-16T15:33:38.297Z,10.00
2017-10-16T15:36:09.546Z,10.13
2017-10-16T15:38:40.713Z,9.20
2017-10-16T15:41:14.061Z,10.70
2017-10-16T15:43:46.640Z,9.47
2017-10-16T15:46:18.509Z,10.33
2017-10-16T15:48:50.925Z,8.63
2017-10-16T15:51:23.166Z,9.37
2017-10-16T15:53:56.870Z,10.30
2017-10-16T15:56:30.019Z,10.47
2017-10-16T15:59:05.142Z,9.60
2017-10-16T16:01:38.335Z,11.10
2017-10-16T16:04:12.834Z,7.80
2017-10-16T16:06:45.924Z,10.30
2017-10-16T16:09:17.202Z,8.87
2017-10-16T16:11:51.965Z,7.87
2017-10-16T16:14:29.895Z,8.23
2017-10-16T16:17:02.148Z,9.33
2017-10-16T16:19:33.341Z,8.03
2017-10-16T16:22:06.133Z,10.20
2017-10-16T16:24:37.521Z,11.03
2017-10-16T16:27:08.008Z,10.20
2017-10-16T16:29:39.595Z,10.60
2017-10-16T16:32:10.317Z,9.17
2017-10-16T16:34:42.158Z,10.87
2017-10-16T16:37:14.998Z,9.73
2017-10-16T16:39:45.539Z,9.13
2017-10-16T16:42:16.755Z,10.40
2017-10-16T16:44:47.143Z,10.57
2017-10-16T16:47:17.431Z,11.27
2017-10-16T16:49:50.241Z,9.13
2017-10-16T16:52:21.247Z,9.50
2017-10-16T16:54:53.822Z,10.67
2017-10-16T16:57:30.071Z,10.07
2017-10-16T17:00:07.007Z,10.80
2017-10-16T17:02:40.928Z,12.03
2017-10-16T17:05:13.587Z,9.60
2017-10-16T17:07:44.824Z,9.30
2017-10-16T17:10:16.822Z,10.83
2017-10-16T17:12:50.637Z,11.90
2017-10-16T17:15:22.358Z,10.73
2017-10-16T17:17:55.169Z,11.50
2017-10-16T17:20:26.618Z,7.90
2017-10-16T17:22:59.625Z,10.80
2017-10-16T17:25:31.786Z,7.23
2017-10-16T17:28:06.565Z,9.10
2017-10-16T17:31:18.934Z,9.50
2017-10-16T17:34:00.862Z,10.40
2017-10-16T17:36:36.263Z,10.73
2017-10-16T17:39:22.766Z,9.00
2017-10-16T17:41:53.746Z,10.60
2017-10-16T17:47:40.160Z,7.70
2017-10-16T17:50:25.048Z,10.20
2017-10-16T17:52:58.953Z,11.73
2017-10-16T17:55:35.996Z,9.60
2017-10-16T17:58:10.892Z,11.03
2017-10-16T18:00:46.514Z,8.60
2017-10-16T18:03:18.869Z,10.67
2017-10-16T18:05:55.407Z,11.03
2017-10-16T18:08:31.477Z,10.80
2017-10-16T18:12:20.360Z,9.47
2017-10-16T18:16:27.870Z,10.60
2017-10-16T18:18:59.366Z,11.17
2017-10-16T18:22:29.914Z,11.73
2017-10-16T18:25:16.243Z,12.10
2017-10-16T18:30:39.253Z,12.67
2017-10-16T18:34:08.086Z,9.33
2017-10-16T18:38:35.764Z,10.97
2017-10-16T18:42:03.055Z,10.67
2017-10-16T18:45:22.911Z,12.20
2017-10-16T18:49:55.944Z,14.27
2017-10-16T18:52:32.468Z,13.67
2017-10-16T18:56:05.229Z,14.60
2017-10-16T18:58:37.480Z,13.73
2017-10-16T19:01:07.792Z,13.73
2017-10-16T19:03:40.606Z,13.10
2017-10-16T19:06:13.160Z,12.53
2017-10-16T19:08:44.596Z,11.77
2017-10-16T19:11:24.118Z,11.97
2017-10-16T19:13:56.946Z,12.80
2017-10-16T19:16:33.071Z,11.43
2017-10-16T19:19:10.499Z,9.57
2017-10-16T19:21:44.164Z,13.10
2017-10-16T19:24:21.883Z,12.37
2017-10-16T19:26:54.209Z,10.83
2017-10-16T19:29:26.045Z,10.30
2017-10-16T19:32:00.446Z,12.93
2017-10-16T19:34:33.748Z,10.67
2017-10-16T19:37:07.554Z,11.83
2017-10-16T19:39:43.265Z,14.90
2017-10-16T19:42:15.100Z,12.97
2017-10-16T19:44:49.088Z,11.60
2017-10-16T19:47:22.877Z,11.30
2017-10-16T19:49:57.605Z,10.60
2017-10-16T19:52:32.333Z,12.03
2017-10-16T19:55:11.888Z,10.80
2017-10-16T19:57:45.658Z,13.20
2017-10-16T20:00:19.353Z,13.80
2017-10-16T20:02:58.657Z,12.53
2017-10-16T20:05:43.173Z,13.73
2017-10-16T20:08:18.675Z,16.20
2017-10-16T20:10:53.217Z,15.93
2017-10-16T20:13:27.732Z,18.23
2017-10-16T20:16:00.155Z,15.17
2017-10-16T20:18:31.090Z,15.40
2017-10-16T20:21:02.514Z,16.50
2017-10-16T20:23:33.416Z,17.47
2017-10-16T20:26:05.309Z,16.00
2017-10-16T20:28:40.680Z,17.30
2017-10-16T20:31:13.584Z,16.53
2017-10-16T20:33:56.290Z,14.50
2017-10-16T20:36:31.135Z,12.63
2017-10-16T20:39:03.502Z,11.23
2017-10-16T20:41:38.426Z,12.37
2017-10-16T20:44:10.493Z,13.00
2017-10-16T20:46:47.752Z,12.60
2017-10-16T20:49:30.508Z,13.33
2017-10-16T20:52:08.943Z,12.10
2017-10-16T20:54:41.075Z,12.10
2017-10-16T20:57:12.592Z,12.07
2017-10-16T20:59:45.368Z,11.73
2017-10-16T21:02:15.972Z,12.20
2017-10-16T21:04:48.616Z,12.87
2017-10-16T21:07:20.219Z,12.93
2017-10-16T21:09:52.804Z,13.60
2017-10-16T21:12:23.434Z,13.10
2017-10-16T21:14:55.249Z,12.60
2017-10-16T21:17:26.009Z,12.10
2017-10-16T21:19:56.727Z,12.20
2017-10-16T21:22:27.230Z,12.63
2017-10-16T21:25:00.442Z,12.70
2017-10-16T21:27:31.672Z,11.93
2017-10-16T21:30:02.961Z,11.50
2017-10-16T21:32:34.120Z,13.13
2017-10-16T21:35:06.098Z,11.70
2017-10-16T21:37:38.162Z,12.23
2017-10-16T21:40:09.451Z,11.97
2017-10-16T21:42:41.705Z,12.57
2017-10-16T21:45:14.959Z,12.40
2017-10-16T21:47:46.426Z,11.23
2017-10-16T21:50:17.601Z,12.17
2017-10-16T21:52:49.053Z,12.23
2017-10-16T21:55:22.227Z,12.00
2017-10-16T21:57:52.969Z,12.00
2017-10-16T22:00:23.542Z,11.57
2017-10-16T22:02:54.451Z,11.70
2017-10-16T22:05:28.648Z,12.13
2017-10-16T22:07:59.892Z,13.00
2017-10-16T22:10:31.151Z,13.00
2017-10-16T22:13:01.502Z,12.90
2017-10-16T22:15:32.026Z,11.93
2017-10-16T22:18:06.099Z,11.20
2017-10-16T22:20:37.587Z,11.67
2017-10-16T22:23:07.963Z,12.23
2017-10-16T22:25:38.799Z,12.00
2017-10-16T22:28:10.445Z,13.10
2017-10-16T22:30:40.865Z,12.93
2017-10-16T22:33:11.582Z,12.40
2017-10-16T22:35:43.913Z,12.90
2017-10-16T22:38:16.430Z,12.40
2017-10-16T22:40:47.634Z,12.57
2017-10-16T22:43:19.063Z,11.70
2017-10-16T22:45:52.457Z,12.33
2017-10-16T22:48:23.065Z,12.90
2017-10-16T22:50:51.963Z,12.80
2017-10-16T22:53:22.643Z,12.87
2017-10-16T22:55:54.010Z,12.80
2017-10-16T22:58:24.742Z,12.30
2017-10-16T23:00:57.043Z,12.27
2017-10-16T23:03:27.737Z,13.00
2017-10-16T23:05:58.104Z,13.43
2017-10-16T23:08:28.498Z,12.47
2017-10-16T23:10:58.694Z,12.97
2017-10-16T23:13:31.059Z,12.60
2017-10-16T23:16:01.621Z,13.50
2017-10-16T23:18:40.372Z,12.03
2017-10-16T23:21:12.209Z,11.90
2017-10-16T23:23:42.915Z,11.23
2017-10-16T23:26:14.458Z,12.40
2017-10-16T23:28:45.659Z,11.80
2017-10-16T23:31:18.577Z,12.13
2017-10-16T23:33:49.217Z,14.53
2017-10-16T23:36:20.547Z,12.87
2017-10-16T23:38:51.599Z,12.00
2017-10-16T23:41:22.165Z,12.20
2017-10-16T23:43:52.763Z,13.27
2017-10-16T23:46:24.358Z,13.13
2017-10-16T23:48:55.569Z,12.30
2017-10-16T23:51:29.523Z,12.57
2017-10-16T23:54:00.043Z,12.03
2017-10-16T23:56:35.652Z,12.67
2017-10-16T23:59:11.807Z,12.10
